Time;durP1;ratioP1;P1;durP2;ratioP2;P2;SDS_P1;SDS_P2;PMS_P1;PMS_P2;Temp;Humidity;BMP_temperature;BMP_pressure;BME280_temperature;BME280_humidity;BME280_pressure;Samples;Min_cycle;Max_cycle;Signal;HPM_P1;HPM_P2
2022/05/20 00:00:14;;;;;;;18.88;9.80;;;;;;;24.80;44.01;101932.22;5036878;28;20040;-67
2022/05/20 00:02:39;;;;;;;20.50;11.35;;;;;;;24.75;44.27;101937.41;5037314;28;20021;-67
2022/05/20 00:05:05;;;;;;;22.20;11.55;;;;;;;24.71;44.30;101933.34;5037285;28;20059;-67
2022/05/20 00:07:30;;;;;;;21.13;11.75;;;;;;;24.69;44.65;101937.31;5037291;28;20021;-67
2022/05/20 00:09:56;;;;;;;21.70;11.75;;;;;;;24.68;44.93;101938.38;5037084;28;20025;-67
2022/05/20 00:12:21;;;;;;;18.55;11.05;;;;;;;24.68;44.99;101941.13;5036875;28;20116;-67
2022/05/20 00:14:46;;;;;;;17.10;10.60;;;;;;;24.65;44.54;101939.59;5037135;28;20033;-67
2022/05/20 00:17:12;;;;;;;17.90;10.68;;;;;;;24.59;44.68;101934.91;5036587;28;20379;-67
2022/05/20 00:19:38;;;;;;;17.13;11.35;;;;;;;24.54;44.48;101945.59;5036998;28;20104;-67
2022/05/20 00:22:05;;;;;;;19.38;10.95;;;;;;;24.47;44.78;101941.94;5036796;28;20032;-67
2022/05/20 00:24:31;;;;;;;16.08;9.75;;;;;;;24.41;45.19;101945.44;5036892;28;20075;-67
2022/05/20 00:26:56;;;;;;;24.70;11.07;;;;;;;24.35;44.74;101943.47;5036858;28;20477;-67
2022/05/20 00:29:22;;;;;;;17.77;10.73;;;;;;;24.31;44.70;101944.91;5036673;28;20076;-67
2022/05/20 00:31:47;;;;;;;17.83;10.95;;;;;;;24.27;44.49;101940.84;5036718;28;20037;-67
2022/05/20 00:34:13;;;;;;;17.70;11.35;;;;;;;24.22;44.92;101949.63;5035112;28;20104;-68
2022/05/20 00:36:38;;;;;;;17.70;11.07;;;;;;;24.15;45.47;101947.84;5036815;28;20025;-67
2022/05/20 00:39:03;;;;;;;25.35;11.32;;;;;;;24.08;44.84;101946.88;5036732;28;20037;-67
2022/05/20 00:41:29;;;;;;;21.25;11.00;;;;;;;24.01;45.00;101941.31;5036447;28;20025;-67
2022/05/20 00:43:54;;;;;;;26.50;11.00;;;;;;;23.95;44.68;101936.63;5036389;28;20100;-67
2022/05/20 00:46:23;;;;;;;19.77;10.02;;;;;;;23.88;45.64;101929.31;5036420;28;20025;-67
2022/05/20 00:49:11;;;;;;;15.85;10.32;;;;;;;23.81;45.82;101934.72;5036543;28;20032;-68
2022/05/20 00:51:41;;;;;;;16.17;9.95;;;;;;;23.75;45.77;101933.59;5018592;28;20112;-66
2022/05/20 00:54:10;;;;;;;17.58;9.68;;;;;;;23.71;45.95;101918.56;5035173;28;20064;-67
2022/05/20 00:56:43;;;;;;;18.85;10.88;;;;;;;23.69;46.10;101917.06;5034926;28;20018;-67
2022/05/20 00:59:12;;;;;;;19.08;10.88;;;;;;;23.67;45.87;101921.88;5035248;28;20029;-67
2022/05/20 01:01:37;;;;;;;19.48;10.85;;;;;;;23.65;46.12;101911.09;5036227;28;20036;-67
2022/05/20 01:04:04;;;;;;;16.30;10.40;;;;;;;23.64;45.86;101911.31;5036191;28;20230;-68
2022/05/20 01:06:29;;;;;;;17.88;10.95;;;;;;;23.63;46.25;101909.59;5035995;28;20530;-67
2022/05/20 01:08:55;;;;;;;19.67;11.60;;;;;;;23.62;46.28;101908.75;5036054;28;20109;-67
2022/05/20 01:11:20;;;;;;;16.92;11.40;;;;;;;23.62;46.34;101903.28;5036082;28;20028;-67
2022/05/20 01:13:48;;;;;;;19.30;11.27;;;;;;;23.59;46.28;101902.81;5035919;28;20026;-66
2022/05/20 01:16:13;;;;;;;19.60;11.07;;;;;;;23.57;45.54;101904.88;5035746;28;20058;-67
2022/05/20 01:18:43;;;;;;;22.65;12.32;;;;;;;23.56;45.73;101901.28;5035586;28;20057;-68
2022/05/20 01:21:08;;;;;;;20.92;12.43;;;;;;;23.56;46.62;101898.56;5035503;28;20021;-67
2022/05/20 01:23:35;;;;;;;17.52;10.32;;;;;;;23.56;45.79;101898.56;5035971;28;20037;-66
2022/05/20 01:26:00;;;;;;;20.25;11.63;;;;;;;23.54;46.09;101905.25;5034543;28;20037;-67
2022/05/20 01:28:29;;;;;;;18.88;11.30;;;;;;;23.52;46.28;101899.13;5035650;28;20021;-67
2022/05/20 01:31:01;;;;;;;20.48;11.10;;;;;;;23.48;45.57;101895.09;5035896;28;20107;-68
2022/05/20 01:33:33;;;;;;;21.67;11.17;;;;;;;23.43;46.65;101892.88;5035678;28;20079;-67
2022/05/20 01:36:00;;;;;;;21.43;12.87;;;;;;;23.42;46.73;101882.97;5035802;28;20021;-67
2022/05/20 01:38:25;;;;;;;16.05;10.00;;;;;;;23.37;46.63;101871.72;5035929;28;20121;-67
2022/05/20 01:41:26;;;;;;;24.17;12.10;;;;;;;23.32;46.98;101896.06;5035330;28;20065;-68
2022/05/20 01:43:57;;;;;;;23.65;12.38;;;;;;;23.28;46.10;101899.34;5033910;28;20475;-67
2022/05/20 01:46:33;;;;;;;22.17;12.30;;;;;;;23.25;46.88;101895.09;5017570;28;20497;-67
2022/05/20 01:49:12;;;;;;;19.38;11.57;;;;;;;23.23;46.76;101893.59;5035211;28;20060;-67
2022/05/20 01:51:46;;;;;;;20.55;11.98;;;;;;;23.21;46.28;101888.31;5034243;28;20383;-67
2022/05/20 01:54:16;;;;;;;20.08;11.07;;;;;;;23.18;46.95;101894.13;5035089;28;20064;-68
2022/05/20 01:56:46;;;;;;;20.90;12.32;;;;;;;23.15;46.95;101892.63;5034016;28;20057;-67
2022/05/20 01:59:24;;;;;;;22.75;12.43;;;;;;;23.12;46.02;101883.94;5033207;28;20117;-68
2022/05/20 02:02:02;;;;;;;19.23;11.57;;;;;;;23.10;46.19;101884.13;5033968;28;20051;-66
2022/05/20 02:04:32;;;;;;;20.40;11.40;;;;;;;23.10;47.06;101877.81;5033883;28;20032;-67
2022/05/20 02:07:07;;;;;;;18.42;11.10;;;;;;;23.09;47.11;101867.91;5033665;28;20014;-67
2022/05/20 02:10:00;;;;;;;21.17;11.68;;;;;;;23.08;46.30;101878.00;5033768;28;20116;-67
2022/05/20 02:12:28;;;;;;;20.42;11.82;;;;;;;23.06;46.72;101871.03;5034843;28;20443;-67
2022/05/20 02:15:08;;;;;;;19.73;12.35;;;;;;;23.08;47.21;101860.75;5033468;28;20041;-67
2022/05/20 02:17:36;;;;;;;18.83;11.30;;;;;;;23.09;46.97;101851.50;5033293;28;20040;-67
2022/05/20 02:20:05;;;;;;;22.52;13.45;;;;;;;23.10;47.37;101847.75;5034574;28;20017;-68
2022/05/20 02:22:34;;;;;;;22.80;13.18;;;;;;;23.09;47.29;101848.75;5034601;28;20021;-67
2022/05/20 02:25:01;;;;;;;24.42;13.10;;;;;;;23.13;46.89;101852.84;5033283;28;20074;-68
2022/05/20 02:27:32;;;;;;;21.33;12.82;;;;;;;23.14;47.55;101851.81;5033396;28;20418;-67
2022/05/20 02:30:09;;;;;;;26.52;14.48;;;;;;;23.15;46.90;101848.03;5034391;28;20028;-68
2022/05/20 02:32:48;;;;;;;26.63;13.82;;;;;;;23.16;47.18;101852.47;5034352;28;20021;-68
2022/05/20 02:35:14;;;;;;;28.98;13.93;;;;;;;23.17;47.61;101859.66;5033352;28;20090;-67
2022/05/20 02:37:39;;;;;;;24.40;13.88;;;;;;;23.16;47.01;101868.88;5034168;28;20026;-67
2022/05/20 02:40:06;;;;;;;26.33;15.45;;;;;;;23.17;46.95;101867.84;5034659;28;20047;-67
2022/05/20 02:42:32;;;;;;;25.75;14.07;;;;;;;23.19;46.85;101860.31;5034318;28;20424;-67
2022/05/20 02:45:00;;;;;;;24.27;14.63;;;;;;;23.19;47.83;101858.44;5034193;28;20063;-67
2022/05/20 02:47:31;;;;;;;28.00;13.82;;;;;;;23.20;46.86;101849.16;5034086;28;20021;-67
2022/05/20 02:50:00;;;;;;;23.95;13.75;;;;;;;23.21;47.03;101855.50;5033880;28;20021;-67
2022/05/20 02:52:25;;;;;;;25.50;14.73;;;;;;;23.21;47.31;101844.56;5032923;28;20026;-66
2022/05/20 02:54:51;;;;;;;30.33;16.40;;;;;;;23.23;48.01;101842.47;5034274;28;20032;-67
2022/05/20 02:57:16;;;;;;;24.45;15.48;;;;;;;23.25;47.72;101862.28;5033696;28;20554;-67
2022/05/20 03:05:10;;;;;;;30.60;16.33;;;;;;;23.22;47.25;101846.25;5033934;28;20117;-67
2022/05/20 03:07:35;;;;;;;24.77;14.38;;;;;;;23.23;47.63;101855.31;5032580;28;20451;-67
2022/05/20 03:10:01;;;;;;;33.28;15.95;;;;;;;23.23;47.04;101847.13;5032930;28;20071;-67
2022/05/20 03:12:26;;;;;;;27.73;15.65;;;;;;;23.24;47.30;101854.25;5033822;28;20025;-67
2022/05/20 03:14:52;;;;;;;30.33;16.50;;;;;;;23.24;47.45;101852.38;5033772;28;20375;-68
2022/05/20 03:17:17;;;;;;;29.10;15.90;;;;;;;23.25;47.52;101861.44;5033675;28;20030;-67
2022/05/20 03:19:43;;;;;;;26.60;14.95;;;;;;;23.25;47.88;101862.28;5033846;28;20545;-68
2022/05/20 03:22:08;;;;;;;28.02;15.98;;;;;;;23.25;47.50;101851.34;5033645;28;20025;-67
2022/05/20 03:24:34;;;;;;;25.38;15.60;;;;;;;23.25;48.04;101840.41;5033924;28;20029;-67
2022/05/20 03:27:00;;;;;;;25.77;14.48;;;;;;;23.27;47.39;101837.50;5033889;28;20026;-67
2022/05/20 03:29:25;;;;;;;27.20;14.95;;;;;;;23.26;48.19;101844.84;5033699;28;20022;-68
2022/05/20 03:31:51;;;;;;;27.77;15.80;;;;;;;23.28;48.00;101844.66;5033564;28;20026;-67
2022/05/20 03:34:17;;;;;;;27.90;15.57;;;;;;;23.29;47.33;101843.59;5033579;28;20037;-68
2022/05/20 03:36:46;;;;;;;28.10;16.15;;;;;;;23.30;47.56;101835.22;5032599;28;20025;-67
2022/05/20 03:39:14;;;;;;;26.33;14.60;;;;;;;23.33;47.69;101836.75;5033931;28;20026;-68
2022/05/20 03:41:40;;;;;;;27.13;15.80;;;;;;;23.33;48.23;101832.13;5033511;28;20033;-67
2022/05/20 03:44:07;;;;;;;26.23;16.02;;;;;;;23.35;47.98;101823.72;5033336;28;20029;-68
2022/05/20 03:46:32;;;;;;;25.73;15.70;;;;;;;23.35;48.01;101829.19;5034068;28;20021;-67
2022/05/20 03:48:59;;;;;;;26.45;14.93;;;;;;;23.36;48.37;101826.28;5033497;28;20079;-68
2022/05/20 03:51:24;;;;;;;28.58;16.77;;;;;;;23.36;47.71;101814.50;5033439;28;20455;-67
2022/05/20 03:53:50;;;;;;;28.80;15.93;;;;;;;23.36;48.39;101809.03;5033349;28;20053;-68
2022/05/20 03:56:15;;;;;;;28.95;16.25;;;;;;;23.38;48.47;101813.28;5033340;28;20021;-68
2022/05/20 03:58:40;;;;;;;27.40;15.77;;;;;;;23.38;47.98;101816.03;5033139;28;20457;-67
2022/05/20 04:03:52;;;;;;;29.02;15.90;;;;;;;23.38;48.06;101813.28;5033445;28;20033;-68
2022/05/20 04:06:17;;;;;;;33.63;17.20;;;;;;;23.37;47.68;101806.09;5032053;28;20025;-68
2022/05/20 04:08:43;;;;;;;27.90;15.77;;;;;;;23.39;47.45;101806.81;5031979;28;20022;-67
2022/05/20 04:11:11;;;;;;;27.45;16.98;;;;;;;23.39;47.47;101808.69;5032970;28;20025;-67
2022/05/20 04:13:39;;;;;;;26.20;15.32;;;;;;;23.37;48.26;101803.34;5032871;28;20033;-68
2022/05/20 04:16:11;;;;;;;26.63;16.15;;;;;;;23.38;47.45;101804.22;5033087;28;20034;-67
2022/05/20 04:18:38;;;;;;;30.83;16.33;;;;;;;23.36;48.18;101798.94;5033181;28;20018;-67
2022/05/20 04:21:04;;;;;;;32.38;16.52;;;;;;;23.34;48.54;101801.00;5032471;28;20387;-67
2022/05/20 04:23:29;;;;;;;28.70;16.05;;;;;;;23.32;48.21;101794.88;5036898;28;20033;-67
2022/05/20 04:25:54;;;;;;;33.15;16.83;;;;;;;23.32;48.16;101797.59;5036834;28;20026;-68
2022/05/20 04:28:20;;;;;;;26.55;15.75;;;;;;;23.33;47.93;101791.09;5036507;28;20078;-67
2022/05/20 04:30:45;;;;;;;27.60;16.00;;;;;;;23.33;47.89;101793.84;5036673;28;20074;-68
2022/05/20 04:33:13;;;;;;;29.00;16.55;;;;;;;23.34;48.57;101790.03;5036947;28;20021;-68
2022/05/20 04:35:38;;;;;;;32.25;17.77;;;;;;;23.34;47.51;101791.97;5036571;28;20021;-68
2022/05/20 04:38:03;;;;;;;28.45;16.60;;;;;;;23.33;48.03;101788.38;5036522;28;20521;-68
2022/05/20 04:40:29;;;;;;;34.17;18.20;;;;;;;23.36;48.78;101782.53;5036598;28;20510;-67
2022/05/20 04:48:45;;;;;;;38.28;16.77;;;;;;;23.48;47.97;101775.56;5054293;28;20083;-67
2022/05/20 04:51:10;;;;;;;29.23;17.17;;;;;;;23.52;48.30;101776.88;5043403;28;20471;-67
2022/05/20 04:56:20;;;;;;;31.80;17.63;;;;;;;23.53;47.75;101775.84;5036003;28;20028;-68
2022/05/20 04:58:45;;;;;;;35.72;16.88;;;;;;;23.55;47.59;101765.56;5035841;28;20406;-67
2022/05/20 05:01:11;;;;;;;30.50;17.48;;;;;;;23.57;48.06;101768.94;5036056;28;20075;-67
2022/05/20 05:03:36;;;;;;;32.28;16.30;;;;;;;23.62;47.52;101760.16;5036095;28;20029;-68
2022/05/20 05:06:01;;;;;;;37.67;17.58;;;;;;;23.71;48.42;101761.75;5035742;28;20028;-67
2022/05/20 05:08:26;;;;;;;34.63;19.20;;;;;;;23.78;47.51;101759.94;5035887;28;20030;-68
2022/05/20 05:10:52;;;;;;;32.97;18.08;;;;;;;23.82;47.85;101761.25;5035812;28;20021;-67
2022/05/20 05:13:17;;;;;;;35.42;19.05;;;;;;;23.82;47.84;101754.91;5036132;28;20026;-68
2022/05/20 05:15:43;;;;;;;36.50;19.60;;;;;;;23.88;47.45;101756.88;5035627;28;20470;-68
2022/05/20 05:18:11;;;;;;;31.55;19.17;;;;;;;23.96;48.04;101751.28;5036212;28;20447;-66
2022/05/20 05:20:44;;;;;;;32.28;18.38;;;;;;;24.01;48.10;101744.19;5035614;28;20036;-67
2022/05/20 05:23:10;;;;;;;35.88;19.02;;;;;;;24.10;47.58;101742.22;5035724;28;20478;-68
2022/05/20 05:25:36;;;;;;;33.08;18.67;;;;;;;24.21;47.34;101748.00;5035458;28;20029;-67
2022/05/20 05:28:02;;;;;;;31.77;17.38;;;;;;;24.32;47.28;101741.16;5035559;28;20025;-67
2022/05/20 05:30:27;;;;;;;29.23;17.58;;;;;;;24.44;47.92;101739.59;5035505;28;20491;-67
2022/05/20 05:32:53;;;;;;;38.25;18.35;;;;;;;24.55;47.50;101741.78;5034613;28;20075;-67
2022/05/20 05:35:23;;;;;;;30.88;16.35;;;;;;;24.69;47.62;101737.25;5035327;28;20029;-67
2022/05/20 05:37:49;;;;;;;37.63;18.17;;;;;;;24.84;47.29;101740.78;5035276;28;20025;-67
2022/05/20 05:40:18;;;;;;;31.98;17.98;;;;;;;24.95;47.21;101747.59;5034024;28;20033;-66
2022/05/20 05:42:43;;;;;;;31.85;18.13;;;;;;;24.93;47.66;101744.22;5035450;28;20033;-67
2022/05/20 05:45:11;;;;;;;33.65;16.80;;;;;;;25.08;47.24;101744.94;5034880;28;20025;-67
2022/05/20 05:47:37;;;;;;;29.95;16.00;;;;;;;25.35;46.57;101744.03;5033795;28;20367;-67
2022/05/20 05:50:03;;;;;;;27.35;16.02;;;;;;;25.62;46.49;101751.38;5035156;28;20032;-67
2022/05/20 05:52:28;;;;;;;24.98;15.52;;;;;;;25.77;46.41;101746.56;5035078;28;20475;-67
2022/05/20 05:54:53;;;;;;;26.00;15.10;;;;;;;25.86;46.90;101748.06;5034968;28;20083;-67
2022/05/20 05:57:19;;;;;;;27.38;15.75;;;;;;;25.86;46.35;101742.59;5034953;28;20045;-67
2022/05/20 05:59:44;;;;;;;29.70;15.48;;;;;;;25.80;46.49;101740.66;5034873;28;20112;-67
2022/05/20 06:02:09;;;;;;;25.88;15.02;;;;;;;25.76;46.31;101742.16;5035041;28;20028;-67
2022/05/20 06:04:35;;;;;;;22.83;14.68;;;;;;;25.72;46.24;101742.75;5034818;28;20475;-68
2022/05/20 06:07:01;;;;;;;20.85;14.02;;;;;;;25.71;46.41;101750.13;5034939;28;20431;-67
2022/05/20 06:09:27;;;;;;;23.25;14.48;;;;;;;25.69;46.23;101749.50;5034540;28;20083;-67
2022/05/20 06:11:52;;;;;;;26.38;14.15;;;;;;;25.72;45.82;101745.50;5034583;28;20108;-67
2022/05/20 06:14:18;;;;;;;31.40;14.75;;;;;;;25.78;46.04;101751.00;5034855;28;20108;-67
2022/05/20 06:16:43;;;;;;;25.35;15.00;;;;;;;25.79;46.11;101747.22;5034678;28;20022;-68
2022/05/20 06:19:09;;;;;;;25.92;14.43;;;;;;;25.80;45.50;101742.56;5034223;28;20048;-67
2022/05/20 06:21:35;;;;;;;23.48;13.15;;;;;;;25.77;46.18;101742.97;5034332;28;20083;-68
2022/05/20 06:24:01;;;;;;;26.75;14.93;;;;;;;25.69;46.15;101735.78;5034226;28;20021;-68
2022/05/20 06:26:30;;;;;;;23.58;15.18;;;;;;;25.75;45.80;101734.09;5034210;28;20029;-67
2022/05/20 06:28:56;;;;;;;28.55;13.90;;;;;;;26.02;45.56;101725.72;5034377;28;20057;-68
2022/05/20 06:31:21;;;;;;;24.58;14.77;;;;;;;26.27;45.44;101716.94;5034429;28;20017;-67
2022/05/20 06:33:46;;;;;;;28.15;14.63;;;;;;;26.47;45.03;101717.75;5034243;28;20142;-68
2022/05/20 06:41:39;;;;;;;31.60;16.38;;;;;;;26.81;44.95;101722.19;5034536;28;20116;-67
2022/05/20 06:44:05;;;;;;;24.38;14.55;;;;;;;27.05;44.74;101727.03;5033790;28;20116;-68
2022/05/20 06:46:31;;;;;;;25.92;15.70;;;;;;;27.26;44.08;101717.66;5033965;28;20022;-67
2022/05/20 06:48:57;;;;;;;28.80;15.02;;;;;;;27.47;43.53;101704.47;5033857;28;20082;-68
2022/05/20 06:51:27;;;;;;;30.38;16.20;;;;;;;27.67;43.77;101704.38;5033865;28;20025;-67
2022/05/20 06:53:53;;;;;;;25.33;13.98;;;;;;;27.92;43.95;101696.19;5033770;28;20175;-68
2022/05/20 06:56:21;;;;;;;26.05;14.73;;;;;;;28.17;43.66;101699.84;5033723;28;20036;-68
2022/05/20 06:58:46;;;;;;;27.35;14.02;;;;;;;28.41;42.63;101700.94;5033722;28;20103;-68
2022/05/20 07:01:13;;;;;;;26.13;14.80;;;;;;;28.54;42.88;101687.00;5033790;28;20464;-68
2022/05/20 07:03:39;;;;;;;29.95;14.93;;;;;;;28.68;41.86;101681.19;5033897;28;20383;-68
2022/05/20 07:06:05;;;;;;;31.98;15.27;;;;;;;28.80;42.19;101679.38;5033487;28;20028;-68
2022/05/20 07:08:31;;;;;;;33.75;16.08;;;;;;;28.96;42.17;101680.66;5033741;28;20021;-68
2022/05/20 07:10:56;;;;;;;25.95;14.45;;;;;;;29.15;41.97;101665.78;5033706;28;20079;-68
2022/05/20 07:13:22;;;;;;;29.77;16.15;;;;;;;29.33;41.39;101667.72;5033897;28;20021;-68
2022/05/20 07:15:47;;;;;;;32.17;17.13;;;;;;;29.52;40.95;101663.84;5033496;28;20112;-67
2022/05/20 07:18:13;;;;;;;29.42;17.58;;;;;;;29.67;40.94;101663.44;5033578;28;20537;-68
2022/05/20 07:20:38;;;;;;;30.02;17.30;;;;;;;29.86;40.92;101663.19;5033417;28;20047;-68
2022/05/20 07:23:04;;;;;;;34.45;18.88;;;;;;;29.82;41.28;101666.63;5033711;28;20060;-68
2022/05/20 07:25:30;;;;;;;35.70;19.48;;;;;;;30.07;41.05;101656.25;5032009;28;20075;-67
2022/05/20 07:27:59;;;;;;;33.63;19.90;;;;;;;30.19;40.82;101657.13;5033206;28;20022;-67
2022/05/20 07:30:24;;;;;;;37.38;19.00;;;;;;;30.14;40.98;101645.94;5033513;28;20482;-68
2022/05/20 07:32:50;;;;;;;38.50;20.52;;;;;;;30.14;41.04;101656.16;5033133;28;20032;-68
2022/05/20 07:35:16;;;;;;;39.55;19.60;;;;;;;30.44;40.68;101645.88;5033326;28;20035;-68
2022/05/20 07:37:42;;;;;;;44.45;21.65;;;;;;;30.45;40.56;101640.09;5032987;28;20029;-68
2022/05/20 07:40:08;;;;;;;38.60;20.20;;;;;;;30.18;40.69;101644.38;5033296;28;20082;-68
2022/05/20 07:42:33;;;;;;;42.35;20.45;;;;;;;29.98;40.56;101641.13;5032611;28;20033;-68
2022/05/20 07:44:58;;;;;;;43.33;20.77;;;;;;;29.91;40.58;101634.84;5032963;28;20133;-67
2022/05/20 07:47:26;;;;;;;39.28;21.90;;;;;;;30.01;41.07;101635.09;5013838;28;20041;-68
2022/05/20 07:49:51;;;;;;;39.28;20.90;;;;;;;30.15;40.78;101627.44;5033215;28;20033;-68
2022/05/20 07:53:19;;;;;;;43.33;21.02;;;;;;;30.14;40.77;101622.97;5031888;28;20032;-68
2022/05/20 07:55:05;;;;;;;42.90;21.73;;;;;;;30.19;40.36;101623.09;5033015;28;20022;-68
2022/05/20 07:57:30;;;;;;;41.42;21.77;;;;;;;30.15;40.70;101624.66;5034118;28;20060;-68
2022/05/20 07:59:56;;;;;;;39.22;23.25;;;;;;;29.99;40.72;101620.66;5037001;28;20029;-68
2022/05/20 08:02:25;;;;;;;43.20;21.77;;;;;;;29.83;41.28;101610.31;5036938;28;20079;-67
2022/05/20 08:04:52;;;;;;;44.80;21.98;;;;;;;29.73;41.68;101612.78;5036158;28;20025;-68
2022/05/20 08:07:18;;;;;;;45.75;21.23;;;;;;;29.57;41.57;101607.91;5036987;28;20021;-67
2022/05/20 08:09:43;;;;;;;41.70;21.35;;;;;;;29.47;41.57;101613.16;5037092;28;20029;-68
2022/05/20 08:12:09;;;;;;;43.28;22.85;;;;;;;29.32;42.18;101617.19;5019287;28;20022;-67
2022/05/20 08:14:34;;;;;;;49.63;22.42;;;;;;;29.21;42.24;101620.72;5036861;28;20040;-68
2022/05/20 08:17:01;;;;;;;40.15;21.60;;;;;;;29.13;41.75;101618.28;5037026;28;20087;-67
2022/05/20 08:19:27;;;;;;;39.45;20.90;;;;;;;29.12;42.14;101613.00;5035749;28;20044;-67
2022/05/20 08:21:52;;;;;;;39.42;21.42;;;;;;;29.13;41.79;101610.00;5035329;28;20018;-67
2022/05/20 08:24:18;;;;;;;41.20;21.00;;;;;;;29.16;42.02;101598.50;5036862;28;20479;-68
2022/05/20 08:26:43;;;;;;;46.67;24.13;;;;;;;29.16;41.55;101595.72;5036731;28;20028;-67
2022/05/20 08:29:12;;;;;;;45.40;22.17;;;;;;;29.22;42.08;101588.47;5036841;28;20049;-67
2022/05/20 08:31:38;;;;;;;41.25;21.90;;;;;;;29.40;41.83;101586.47;5035475;28;20021;-68
2022/05/20 08:34:04;;;;;;;39.72;21.00;;;;;;;29.75;41.91;101583.00;5036616;28;20048;-69
2022/05/20 08:36:29;;;;;;;49.17;20.95;;;;;;;30.22;40.73;101570.94;5036297;28;20031;-68
2022/05/20 08:38:55;;;;;;;41.97;22.65;;;;;;;30.68;40.58;101569.25;5036358;28;20455;-68
2022/05/20 08:41:34;;;;;;;43.33;22.60;;;;;;;31.00;40.40;101576.03;5036143;28;20025;-68
2022/05/20 08:44:01;;;;;;;41.42;22.88;;;;;;;31.24;40.60;101561.00;5036087;28;20037;-68
2022/05/20 08:46:26;;;;;;;42.08;22.38;;;;;;;31.39;40.21;101547.44;5034924;28;20021;-67
2022/05/20 08:48:53;;;;;;;39.60;21.58;;;;;;;31.45;40.46;101543.69;5036089;28;20087;-68
2022/05/20 08:51:20;;;;;;;40.95;21.15;;;;;;;31.65;39.89;101551.56;5036109;28;20071;-68
2022/05/20 08:53:47;;;;;;;40.25;22.67;;;;;;;31.86;39.31;101536.09;5036069;28;20113;-68
2022/05/20 08:56:19;;;;;;;44.58;22.90;;;;;;;31.76;39.55;101541.47;5035824;28;20022;-68
2022/05/20 08:58:56;;;;;;;35.75;20.05;;;;;;;31.51;40.09;101534.41;5035630;28;20145;-67
2022/05/20 09:01:40;;;;;;;37.58;20.67;;;;;;;31.38;39.71;101534.69;5034668;28;20030;-68
2022/05/20 09:04:07;;;;;;;40.53;21.30;;;;;;;31.34;40.68;101533.53;5035732;28;20056;-68
2022/05/20 09:06:41;;;;;;;37.80;22.77;;;;;;;31.37;40.34;101521.94;5034565;28;20018;-68
2022/05/20 09:09:14;;;;;;;37.25;20.85;;;;;;;31.53;40.10;101521.16;5034268;28;20021;-67
2022/05/20 09:11:41;;;;;;;38.92;22.30;;;;;;;31.56;39.87;101514.25;5035898;28;20025;-69
2022/05/20 09:17:08;;;;;;;43.22;23.02;;;;;;;31.80;40.32;101509.41;5035573;28;20068;-68
2022/05/20 09:19:33;;;;;;;37.40;21.27;;;;;;;31.82;40.22;101508.06;5035358;28;20083;-68
2022/05/20 09:22:06;;;;;;;41.35;21.50;;;;;;;31.63;40.16;101507.44;5035411;28;20025;-69
2022/05/20 09:24:40;;;;;;;45.95;24.50;;;;;;;31.98;39.73;101489.72;5035670;28;20509;-68
2022/05/20 09:27:09;;;;;;;41.00;24.33;;;;;;;32.31;38.64;101477.72;5035565;28;20474;-68
2022/05/20 09:29:44;;;;;;;42.03;23.05;;;;;;;32.66;39.59;101481.84;5034199;28;20498;-68
2022/05/20 09:32:29;;;;;;;38.53;22.92;;;;;;;33.10;38.13;101473.47;5017425;28;20022;-68
2022/05/20 09:35:04;;;;;;;37.58;21.58;;;;;;;33.51;37.99;101456.06;5034011;28;20461;-69
2022/05/20 09:37:33;;;;;;;39.35;22.55;;;;;;;33.86;38.40;101448.03;5034980;28;20029;-68
2022/05/20 09:39:58;;;;;;;43.75;23.73;;;;;;;34.16;37.82;101440.97;5034059;28;20036;-69
2022/05/20 09:42:29;;;;;;;40.30;22.73;;;;;;;34.50;36.97;101447.81;5034065;28;20033;-68
2022/05/20 09:44:56;;;;;;;35.28;20.48;;;;;;;34.78;37.57;101440.97;5035571;28;20029;-68
2022/05/20 09:47:34;;;;;;;37.78;22.10;;;;;;;34.85;37.30;101433.16;5035154;28;20059;-69
2022/05/20 09:50:26;;;;;;;39.50;22.27;;;;;;;34.93;37.07;101418.69;5034885;28;20035;-68
2022/05/20 09:52:54;;;;;;;30.77;18.30;;;;;;;34.96;36.13;101405.06;5032111;28;20133;-69
2022/05/20 09:55:33;;;;;;;32.50;19.60;;;;;;;35.22;36.75;101405.09;5034947;28;20025;-68
2022/05/20 09:58:21;;;;;;;33.58;21.52;;;;;;;35.55;35.78;101399.81;5034687;28;20045;-68
2022/05/20 10:00:55;;;;;;;35.45;23.23;;;;;;;35.85;35.65;101393.31;5033568;28;20113;-69
2022/05/20 10:03:35;;;;;;;33.33;20.05;;;;;;;36.43;34.83;101388.94;5033664;28;20139;-68
2022/05/20 10:06:18;;;;;;;29.15;18.48;;;;;;;37.24;33.84;101371.66;5035107;28;20022;-68
2022/05/20 10:09:08;;;;;;;30.60;19.15;;;;;;;38.04;32.81;101364.41;5034959;28;20439;-67
2022/05/20 10:12:11;;;;;;;27.52;17.60;;;;;;;38.08;32.36;101357.06;5033439;28;20029;-69
2022/05/20 10:14:56;;;;;;;26.45;18.00;;;;;;;37.75;33.14;101355.19;5033739;28;20033;-69
2022/05/20 10:17:49;;;;;;;29.75;18.55;;;;;;;37.48;33.48;101343.75;5035094;28;20030;-70
2022/05/20 10:20:36;;;;;;;26.67;17.70;;;;;;;37.44;33.79;101334.31;5033196;28;20372;-69
2022/05/20 10:23:05;;;;;;;25.73;17.98;;;;;;;37.49;33.58;101325.88;5034622;28;20104;-68
2022/05/20 10:25:38;;;;;;;27.58;17.63;;;;;;;37.40;33.23;101330.41;5034569;28;20156;-68
2022/05/20 10:28:12;;;;;;;29.10;18.38;;;;;;;37.51;33.22;101321.63;5034270;28;20034;-69
2022/05/20 10:33:32;;;;;;;26.30;18.27;;;;;;;37.80;33.31;101314.00;5033144;28;20505;-69
2022/05/20 10:35:58;;;;;;;24.30;17.58;;;;;;;37.90;32.82;101307.47;5033077;28;20025;-69
2022/05/20 10:38:50;;;;;;;24.02;18.15;;;;;;;37.96;33.55;101300.69;5034302;28;20036;-69
2022/05/20 10:41:38;;;;;;;24.92;18.17;;;;;;;37.87;33.08;101285.66;5032845;28;20022;-68
2022/05/20 10:50:24;;;;;;;22.25;14.10;;;;;;;37.16;33.63;101266.06;5029024;28;20111;-69
2022/05/20 10:53:11;;;;;;;30.63;17.57;;;;;;;37.08;33.81;101245.19;5014721;28;20028;-69
2022/05/20 10:56:08;;;;;;;24.73;17.20;;;;;;;36.96;33.57;101235.50;5032604;28;20558;-68
2022/05/20 10:58:53;;;;;;;27.05;17.20;;;;;;;36.82;33.96;101221.41;5023192;28;20136;-68
2022/05/20 11:01:26;;;;;;;29.65;17.58;;;;;;;36.84;33.81;101205.16;5032212;28;20037;-69
2022/05/20 11:04:22;;;;;;;26.17;18.60;;;;;;;36.85;33.91;101192.88;5031678;28;20450;-69
2022/05/20 11:07:20;;;;;;;30.33;17.92;;;;;;;36.73;33.83;101170.09;5033940;28;20441;-68
2022/05/20 11:10:06;;;;;;;27.70;18.20;;;;;;;36.46;34.20;101153.00;5025473;28;20172;-68
2022/05/20 11:12:53;;;;;;;31.23;17.27;;;;;;;36.13;34.50;101137.91;5033540;28;20037;-68
2022/05/20 11:15:29;;;;;;;26.48;16.95;;;;;;;35.65;34.43;101128.50;5032181;28;20419;-68
2022/05/20 11:18:18;;;;;;;34.70;16.63;;;;;;;35.25;35.01;101121.16;5031967;28;20028;-69
2022/05/20 11:21:11;;;;;;;28.63;17.30;;;;;;;34.94;35.22;101120.41;5032535;28;20049;-69
2022/05/20 11:23:39;;;;;;;27.05;17.67;;;;;;;34.68;35.71;101112.38;5032445;28;20025;-68
2022/05/20 11:26:29;;;;;;;33.42;20.13;;;;;;;34.42;35.80;101117.16;5012081;28;20034;-68
2022/05/20 11:29:12;;;;;;;30.98;19.60;;;;;;;34.14;36.58;101112.16;5030071;28;20123;-69
2022/05/20 11:32:01;;;;;;;28.98;19.77;;;;;;;33.85;36.82;101103.50;5032442;28;20040;-69
2022/05/20 11:34:38;;;;;;;30.33;18.23;;;;;;;33.55;37.15;101089.50;5033279;28;20032;-68
2022/05/20 11:37:27;;;;;;;30.40;19.02;;;;;;;33.29;37.90;101080.28;5032231;28;20536;-69
2022/05/20 11:40:18;;;;;;;33.70;18.38;;;;;;;32.99;37.46;101078.19;5033563;28;20030;-68
2022/05/20 11:43:21;;;;;;;28.33;18.48;;;;;;;32.72;37.76;101097.75;5027142;28;20045;-68
2022/05/20 11:46:03;;;;;;;34.90;19.23;;;;;;;32.47;38.47;101111.44;5033061;28;20028;-69
2022/05/20 11:48:31;;;;;;;;;;;;;;;32.35;38.55;101121.91;5032331;28;20108;-68
2022/05/20 11:51:21;;;;;;;28.80;17.80;;;;;;;32.20;38.93;101116.22;5032984;28;19909;-68
2022/05/20 11:53:51;;;;;;;37.05;19.00;;;;;;;32.01;39.81;101131.59;5033101;28;20026;-68
2022/05/20 11:56:36;;;;;;;36.38;19.20;;;;;;;31.80;40.18;101138.03;5031891;28;20030;-68